KCNU/CNU METAR and TAF weather

Enter ICAO airport designator
Station Type Date Time Source
KCNU METAR 2020/07/11 03:52 UTC NOAA

KCNU 110352Z AUTO 20006KT 10SM CLR 24/21 A3000 RMK AO2 SLP148 T02390206


Station Type Date Time Source
KCNU Decoded METAR 2020/07/11 03:52 UTC NOAA

CHANUTE JOHNSON AIRPORT, KS, United States (KCNU) 37-40N 95-29W 297M
Jul 10, 2020 - 11:52 PM EDT / 2020.07.11 0352 UTC
Wind: from the SSW (200 degrees) at 7 MPH (6 KT):0
Visibility: 10 mile(s):0
Sky conditions: clear
Temperature: 75.0 F (23.9 C)
Dew Point: 69.1 F (20.6 C)
Relative Humidity: 81%
Pressure (altimeter): 30 in. Hg (1015 hPa)
ob: KCNU 110352Z AUTO 20006KT 10SM CLR 24/21 A3000 RMK AO2 SLP148 T02390206
cycle: 4

Station Type Date Time Source
KCNU TAF 2020/07/10 18:42 UTC NOAA

TAF KCNU 101741Z 1018/1118 13008KT P6SM SCT250
FM110600 14006KT P6SM VCTS SCT040 BKN080CB
FM111100 11008KT P6SM VCTS BKN200CB
FM111200 10009KT P6SM BKN150
FM111500 13010KT P6SM SCT120
FM111700 15008KT P6SM SCT200

Example: see airport list